createdAt,value
2023-01-26T00:00:40.757Z,5.95
2023-01-26T00:02:04.303Z,5.05
2023-01-26T00:03:28.081Z,5.63
2023-01-26T00:04:51.504Z,5.20
2023-01-26T00:06:16.604Z,6.25
2023-01-26T00:07:42.724Z,5.82
2023-01-26T00:09:05.322Z,6.20
2023-01-26T00:10:30.083Z,5.97
2023-01-26T00:11:53.392Z,6.80
2023-01-26T00:13:17.418Z,6.05
2023-01-26T00:14:52.674Z,6.18
2023-01-26T00:16:15.710Z,6.15
2023-01-26T00:17:39.261Z,7.20
2023-01-26T00:19:02.215Z,6.68
2023-01-26T00:20:25.586Z,7.22
2023-01-26T00:21:49.083Z,7.35
2023-01-26T00:23:12.466Z,7.30
2023-01-26T00:24:34.926Z,8.07
2023-01-26T00:25:59.857Z,7.03
2023-01-26T00:27:22.335Z,6.72
2023-01-26T00:28:45.817Z,7.07
2023-01-26T00:30:10.076Z,7.97
2023-01-26T00:31:33.727Z,6.82
2023-01-26T00:32:57.483Z,7.60
2023-01-26T00:34:21.004Z,7.00
2023-01-26T00:35:44.581Z,6.40
2023-01-26T00:37:08.066Z,7.82
2023-01-26T00:38:33.475Z,6.78
2023-01-26T00:39:57.037Z,8.30
2023-01-26T00:41:39.107Z,6.70
2023-01-26T00:43:02.592Z,6.20
2023-01-26T00:44:25.006Z,6.40
2023-01-26T00:45:48.563Z,7.82
2023-01-26T00:47:12.424Z,6.90
2023-01-26T00:48:35.819Z,7.47
2023-01-26T00:49:59.246Z,6.57
2023-01-26T00:51:21.717Z,7.32
2023-01-26T00:52:45.201Z,8.18
2023-01-26T00:54:07.594Z,6.80
2023-01-26T00:55:33.079Z,7.80
2023-01-26T00:56:57.139Z,7.15
2023-01-26T00:58:20.727Z,6.97
2023-01-26T00:59:43.214Z,7.00
2023-01-26T01:01:08.749Z,7.47
2023-01-26T01:02:34.419Z,7.30
2023-01-26T01:03:56.861Z,7.10
2023-01-26T01:05:20.515Z,7.38
2023-01-26T01:06:43.181Z,7.75
2023-01-26T01:08:07.079Z,7.63
2023-01-26T01:09:30.474Z,7.32
2023-01-26T01:11:03.919Z,8.02
2023-01-26T01:12:28.795Z,7.72
2023-01-26T01:13:51.666Z,8.98
2023-01-26T01:15:15.288Z,7.10
2023-01-26T01:16:37.856Z,7.97
2023-01-26T01:18:01.383Z,7.43
2023-01-26T01:19:27.432Z,7.50
2023-01-26T01:20:49.924Z,7.43
2023-01-26T01:22:13.363Z,7.63
2023-01-26T01:23:36.138Z,6.80
2023-01-26T01:24:59.634Z,9.25
2023-01-26T01:26:25.083Z,8.40
2023-01-26T01:27:50.320Z,8.35
2023-01-26T01:29:13.663Z,7.80
2023-01-26T01:30:39.702Z,7.53
2023-01-26T01:32:03.136Z,9.18
2023-01-26T01:33:25.594Z,9.00
2023-01-26T01:34:49.303Z,7.35
2023-01-26T01:36:13.503Z,6.65
2023-01-26T01:37:37.323Z,8.25
2023-01-26T01:39:01.230Z,7.68
2023-01-26T01:40:24.711Z,8.23
2023-01-26T01:41:48.180Z,8.30
2023-01-26T01:43:12.846Z,7.05
2023-01-26T01:44:37.482Z,7.68
2023-01-26T01:46:01.519Z,8.13
2023-01-26T01:47:26.965Z,7.88
2023-01-26T01:48:58.259Z,7.80
2023-01-26T01:50:20.903Z,7.25
2023-01-26T01:51:46.580Z,8.05
2023-01-26T01:53:11.907Z,7.82
2023-01-26T01:54:37.584Z,7.78
2023-01-26T01:56:02.931Z,8.18
2023-01-26T01:57:30.526Z,8.25
2023-01-26T01:58:56.981Z,8.60
2023-01-26T02:00:22.671Z,7.53
2023-01-26T02:01:46.158Z,8.07
2023-01-26T02:03:13.456Z,7.38
2023-01-26T02:04:36.932Z,7.78
2023-01-26T02:06:03.805Z,8.35
2023-01-26T02:07:27.709Z,8.02
2023-01-26T02:08:52.355Z,7.32
2023-01-26T02:10:20.814Z,7.15
2023-01-26T02:11:45.825Z,7.53
2023-01-26T02:13:08.693Z,7.93
2023-01-26T02:14:34.351Z,7.63
2023-01-26T02:15:59.519Z,7.80
2023-01-26T02:17:25.887Z,6.95
2023-01-26T02:18:49.521Z,7.93
2023-01-26T02:20:17.019Z,8.23
2023-01-26T02:21:41.285Z,7.30
2023-01-26T02:23:07.426Z,8.25
2023-01-26T02:24:36.037Z,7.03
2023-01-26T02:26:08.503Z,7.13
2023-01-26T02:27:32.060Z,8.30
2023-01-26T02:28:55.861Z,8.52
2023-01-26T02:30:19.486Z,7.35
2023-01-26T02:31:43.187Z,6.95
2023-01-26T02:33:05.663Z,8.10
2023-01-26T02:34:29.551Z,7.97
2023-01-26T02:35:52.413Z,7.20
2023-01-26T02:37:16.136Z,8.77
2023-01-26T02:38:41.952Z,7.70
2023-01-26T02:40:10.688Z,8.18
2023-01-26T02:41:53.196Z,9.30
2023-01-26T02:43:16.704Z,8.48
2023-01-26T02:44:40.402Z,7.28
2023-01-26T02:46:03.888Z,8.23
2023-01-26T02:47:26.308Z,8.05
2023-01-26T02:49:07.024Z,7.75
2023-01-26T02:50:30.521Z,8.10
2023-01-26T02:51:53.104Z,7.65
2023-01-26T02:53:16.859Z,8.00
2023-01-26T02:54:57.526Z,7.43
2023-01-26T02:56:20.031Z,7.28
2023-01-26T02:57:45.251Z,7.20
2023-01-26T02:59:08.755Z,8.18
2023-01-26T03:00:34.836Z,8.32
2023-01-26T03:01:58.476Z,7.03
2023-01-26T03:03:24.644Z,6.85
2023-01-26T03:04:47.075Z,8.93
2023-01-26T03:06:11.554Z,8.35
2023-01-26T03:07:34.101Z,8.85
2023-01-26T03:08:57.647Z,8.40
2023-01-26T03:10:24.061Z,8.50
2023-01-26T03:11:46.486Z,8.73
2023-01-26T03:13:11.257Z,8.32
2023-01-26T03:14:33.690Z,9.55
2023-01-26T03:16:02.676Z,7.93
2023-01-26T03:17:25.113Z,7.38
2023-01-26T03:19:09.453Z,9.20
2023-01-26T03:20:52.469Z,9.30
2023-01-26T03:22:33.594Z,8.25
2023-01-26T03:24:14.585Z,8.02
2023-01-26T03:25:56.214Z,7.32
2023-01-26T03:27:28.772Z,8.95
2023-01-26T03:28:52.627Z,7.90
2023-01-26T03:30:18.677Z,8.45
2023-01-26T03:31:41.219Z,8.68
2023-01-26T03:33:04.725Z,8.43
2023-01-26T03:34:29.526Z,8.13
2023-01-26T03:35:54.071Z,8.45
2023-01-26T03:37:22.635Z,8.60
2023-01-26T03:38:46.067Z,8.50
2023-01-26T03:40:34.191Z,8.38
2023-01-26T03:42:15.135Z,8.00
2023-01-26T03:43:56.297Z,7.00
2023-01-26T03:45:38.507Z,7.68
2023-01-26T03:47:20.059Z,7.35
2023-01-26T03:49:01.046Z,7.35
2023-01-26T03:50:42.280Z,8.32
2023-01-26T03:52:23.624Z,7.68
2023-01-26T03:54:04.487Z,7.03
2023-01-26T03:55:45.152Z,6.72
2023-01-26T03:57:08.652Z,7.55
2023-01-26T03:58:33.822Z,6.63
2023-01-26T03:59:57.228Z,7.38
2023-01-26T04:01:26.033Z,7.85
2023-01-26T04:03:07.529Z,6.85
2023-01-26T04:04:48.559Z,7.22
2023-01-26T04:06:29.786Z,7.53
2023-01-26T04:08:10.542Z,7.28
2023-01-26T04:09:34.469Z,6.35
2023-01-26T04:10:58.202Z,7.05
2023-01-26T04:12:20.825Z,6.78
2023-01-26T04:14:02.010Z,6.53
2023-01-26T04:15:43.083Z,7.10
2023-01-26T04:17:25.552Z,6.80
2023-01-26T04:19:06.362Z,8.13
2023-01-26T04:20:47.400Z,6.45
2023-01-26T04:22:14.490Z,7.50
2023-01-26T04:23:43.420Z,6.60
2023-01-26T04:25:08.281Z,6.38
2023-01-26T04:26:34.807Z,6.15
2023-01-26T04:27:58.320Z,6.00
2023-01-26T04:29:23.978Z,7.38
2023-01-26T04:30:46.582Z,7.68
2023-01-26T04:32:11.587Z,6.72
2023-01-26T04:33:34.094Z,6.18
2023-01-26T04:34:57.839Z,6.10
2023-01-26T04:36:21.389Z,5.50
2023-01-26T04:37:47.176Z,6.65
2023-01-26T04:39:09.838Z,6.68
2023-01-26T04:40:34.936Z,6.13
2023-01-26T04:41:58.329Z,6.25
2023-01-26T04:43:20.839Z,6.53
2023-01-26T04:44:44.482Z,6.57
2023-01-26T04:46:09.130Z,5.93
2023-01-26T04:47:34.023Z,6.10
2023-01-26T04:48:57.489Z,5.88
2023-01-26T04:50:20.887Z,5.60
2023-01-26T04:51:44.139Z,5.90
2023-01-26T04:53:07.621Z,6.90
2023-01-26T04:54:30.029Z,7.20
2023-01-26T04:55:53.686Z,6.28
2023-01-26T04:57:21.800Z,6.30
2023-01-26T04:58:45.211Z,6.30
2023-01-26T05:00:12.435Z,5.72
2023-01-26T05:01:36.188Z,5.68
2023-01-26T05:03:02.041Z,6.05
2023-01-26T05:04:25.538Z,5.50
2023-01-26T05:05:49.821Z,6.68
2023-01-26T05:07:13.263Z,6.78
2023-01-26T05:08:36.290Z,6.78
2023-01-26T05:09:59.727Z,5.88
2023-01-26T05:11:22.479Z,7.28
2023-01-26T05:12:46.129Z,6.95
2023-01-26T05:14:10.062Z,7.10
2023-01-26T05:15:32.552Z,6.00
2023-01-26T05:16:55.975Z,6.18
2023-01-26T05:18:21.011Z,6.63
2023-01-26T05:19:44.535Z,6.40
2023-01-26T05:21:09.073Z,7.35
2023-01-26T05:22:31.614Z,7.05
2023-01-26T05:23:55.410Z,6.30
2023-01-26T05:25:19.348Z,6.85
2023-01-26T05:26:42.835Z,6.15
2023-01-26T05:28:06.714Z,6.18
2023-01-26T05:29:30.387Z,6.43
2023-01-26T05:30:53.863Z,6.75
2023-01-26T05:32:16.393Z,6.75
2023-01-26T05:33:41.379Z,7.10
2023-01-26T05:35:04.502Z,5.40
2023-01-26T05:36:27.967Z,5.90
2023-01-26T05:37:50.397Z,6.53
2023-01-26T05:39:13.886Z,6.60
2023-01-26T05:40:36.349Z,6.40
2023-01-26T05:41:59.810Z,6.78
2023-01-26T05:43:23.295Z,6.20
2023-01-26T05:44:45.752Z,6.82
2023-01-26T05:46:09.354Z,6.22
2023-01-26T05:47:32.901Z,5.80
2023-01-26T05:48:57.840Z,7.38
2023-01-26T05:50:21.412Z,6.18
2023-01-26T05:51:44.944Z,5.80
2023-01-26T05:53:08.407Z,6.72
2023-01-26T05:54:31.865Z,7.57
2023-01-26T05:55:55.304Z,7.28
2023-01-26T05:57:17.860Z,6.68
2023-01-26T05:58:41.364Z,6.55
2023-01-26T06:00:05.325Z,7.13
2023-01-26T06:01:29.136Z,6.80
2023-01-26T06:02:52.690Z,7.20
2023-01-26T06:04:16.715Z,7.25
2023-01-26T06:05:40.208Z,6.43
2023-01-26T06:07:05.125Z,5.95
2023-01-26T06:08:28.547Z,6.30
2023-01-26T06:09:52.086Z,6.53
2023-01-26T06:11:15.542Z,6.82
2023-01-26T06:12:39.154Z,7.18
2023-01-26T06:14:01.645Z,6.75
2023-01-26T06:15:27.341Z,7.20
2023-01-26T06:16:50.058Z,6.45
2023-01-26T06:18:13.539Z,6.63
2023-01-26T06:19:38.752Z,7.07
2023-01-26T06:21:02.581Z,6.68
2023-01-26T06:22:26.038Z,7.65
2023-01-26T06:23:49.563Z,7.10
2023-01-26T06:25:13.069Z,6.57
2023-01-26T06:26:36.596Z,6.90
2023-01-26T06:28:00.150Z,6.90
2023-01-26T06:29:24.251Z,6.22
2023-01-26T06:30:47.811Z,6.07
2023-01-26T06:32:15.444Z,6.22
2023-01-26T06:33:39.626Z,6.45
2023-01-26T06:35:08.340Z,7.05
2023-01-26T06:36:31.860Z,6.68
2023-01-26T06:37:56.146Z,7.05
2023-01-26T06:39:19.555Z,6.15
2023-01-26T06:40:43.057Z,6.43
2023-01-26T06:42:06.558Z,6.28
2023-01-26T06:43:30.248Z,5.40
2023-01-26T06:44:53.772Z,6.38
2023-01-26T06:46:18.165Z,6.43
2023-01-26T06:47:47.051Z,5.68
2023-01-26T06:49:11.510Z,5.97
2023-01-26T06:50:37.735Z,6.30
2023-01-26T06:52:05.464Z,5.93
2023-01-26T06:53:34.244Z,5.38
2023-01-26T06:55:00.375Z,5.07
2023-01-26T06:56:25.239Z,5.35
2023-01-26T06:57:50.400Z,4.88
2023-01-26T06:59:14.706Z,5.03
2023-01-26T07:00:40.786Z,5.47
2023-01-26T07:02:04.514Z,4.63
2023-01-26T07:03:28.112Z,5.35
2023-01-26T07:04:52.385Z,4.80
2023-01-26T07:06:17.203Z,4.53
2023-01-26T07:07:40.671Z,5.57
2023-01-26T07:09:04.200Z,5.25
2023-01-26T07:10:27.607Z,5.30
2023-01-26T07:11:51.123Z,5.85
2023-01-26T07:13:14.586Z,5.68
2023-01-26T07:14:38.003Z,5.30
2023-01-26T07:16:04.611Z,4.93
2023-01-26T07:17:28.102Z,5.78
2023-01-26T07:18:51.649Z,6.45
2023-01-26T07:20:15.536Z,5.32
2023-01-26T07:21:40.640Z,5.88
2023-01-26T07:23:04.064Z,5.97
2023-01-26T07:24:27.711Z,5.55
2023-01-26T07:25:51.383Z,6.72
2023-01-26T07:27:14.841Z,5.68
2023-01-26T07:28:40.387Z,6.43
2023-01-26T07:30:04.164Z,5.68
2023-01-26T07:31:27.732Z,4.70
2023-01-26T07:32:51.159Z,5.18
2023-01-26T07:34:15.089Z,4.90
2023-01-26T07:35:38.528Z,4.57
2023-01-26T07:37:03.503Z,4.68
2023-01-26T07:38:28.253Z,5.60
2023-01-26T07:39:52.042Z,5.82
2023-01-26T07:41:15.471Z,5.13
2023-01-26T07:42:39.069Z,4.65
2023-01-26T07:44:02.549Z,4.50
2023-01-26T07:45:26.171Z,6.07
2023-01-26T07:46:49.712Z,4.85
2023-01-26T07:48:13.274Z,5.05
2023-01-26T07:49:36.773Z,4.65
2023-01-26T07:51:01.308Z,4.82
2023-01-26T07:52:26.598Z,4.55
2023-01-26T07:53:50.072Z,5.65
2023-01-26T07:55:13.529Z,5.13
2023-01-26T07:56:38.240Z,5.13
2023-01-26T07:58:01.690Z,4.57
2023-01-26T07:59:25.411Z,4.55
2023-01-26T08:00:48.806Z,5.10
2023-01-26T08:02:12.509Z,5.68
2023-01-26T08:03:36.145Z,4.82
2023-01-26T08:05:00.209Z,5.38
2023-01-26T08:06:24.929Z,5.68
2023-01-26T08:07:49.800Z,5.25
2023-01-26T08:09:13.569Z,4.82
2023-01-26T08:10:37.105Z,5.80
2023-01-26T08:12:01.727Z,5.05
2023-01-26T08:13:34.579Z,5.22
2023-01-26T08:14:58.641Z,5.13
2023-01-26T08:16:22.224Z,5.72
2023-01-26T08:17:45.637Z,5.68
2023-01-26T08:19:09.290Z,6.38
2023-01-26T08:20:32.843Z,5.80
2023-01-26T08:21:57.627Z,6.13
2023-01-26T08:23:22.849Z,5.95
2023-01-26T08:24:46.347Z,5.30
2023-01-26T08:26:14.588Z,5.50
2023-01-26T08:27:38.052Z,5.57
2023-01-26T08:29:01.561Z,5.22
2023-01-26T08:30:25.079Z,5.72
2023-01-26T08:31:48.516Z,4.60
2023-01-26T08:33:12.206Z,4.38
2023-01-26T08:34:35.756Z,5.10
2023-01-26T08:36:03.025Z,4.40
2023-01-26T08:37:26.489Z,5.22
2023-01-26T08:38:51.847Z,4.90
2023-01-26T08:40:16.417Z,5.03
2023-01-26T08:41:40.807Z,5.63
2023-01-26T08:43:04.619Z,4.70
2023-01-26T08:44:28.036Z,6.13
2023-01-26T08:45:51.566Z,5.60
2023-01-26T08:47:15.137Z,5.75
2023-01-26T08:48:41.440Z,5.43
2023-01-26T08:50:05.287Z,4.90
2023-01-26T08:51:28.767Z,5.93
2023-01-26T08:52:52.300Z,5.60
2023-01-26T08:54:17.305Z,5.57
2023-01-26T08:55:40.793Z,5.68
2023-01-26T08:57:04.248Z,5.13
2023-01-26T08:58:28.877Z,5.63
2023-01-26T08:59:52.286Z,5.43
2023-01-26T09:01:19.495Z,6.05
2023-01-26T09:02:43.163Z,5.50
2023-01-26T09:04:06.955Z,5.80
2023-01-26T09:05:33.772Z,5.82
2023-01-26T09:06:57.153Z,5.97
2023-01-26T09:08:20.581Z,5.63
2023-01-26T09:09:45.570Z,5.97
2023-01-26T09:11:09.783Z,5.93
2023-01-26T09:12:33.243Z,5.13
2023-01-26T09:13:57.323Z,4.72
2023-01-26T09:15:20.833Z,5.35
2023-01-26T09:16:44.287Z,5.97
2023-01-26T09:18:08.071Z,5.25
2023-01-26T09:19:31.520Z,5.13
2023-01-26T09:20:55.889Z,5.32
2023-01-26T09:22:19.283Z,4.95
2023-01-26T09:23:42.683Z,5.25
2023-01-26T09:25:08.687Z,4.75
2023-01-26T09:26:32.350Z,5.15
2023-01-26T09:27:55.800Z,4.88
2023-01-26T09:29:19.189Z,5.75
2023-01-26T09:30:42.726Z,5.13
2023-01-26T09:32:06.740Z,5.60
2023-01-26T09:33:30.149Z,5.55
2023-01-26T09:34:53.707Z,4.80
2023-01-26T09:36:17.477Z,5.40
2023-01-26T09:37:40.949Z,5.32
2023-01-26T09:39:04.392Z,4.53
2023-01-26T09:40:46.086Z,4.38
2023-01-26T09:42:27.886Z,5.10
2023-01-26T09:43:53.658Z,4.43
2023-01-26T09:45:26.098Z,4.45
2023-01-26T09:46:58.119Z,4.05
2023-01-26T09:48:28.388Z,3.75
2023-01-26T09:50:00.639Z,4.45
2023-01-26T09:51:27.832Z,4.32
2023-01-26T09:52:55.579Z,3.85
2023-01-26T09:54:26.599Z,4.40
2023-01-26T09:55:51.461Z,4.07
2023-01-26T09:57:16.013Z,3.42
2023-01-26T09:58:42.893Z,4.15
2023-01-26T10:00:09.580Z,3.67
2023-01-26T10:01:37.921Z,4.40
2023-01-26T10:03:10.948Z,4.05
2023-01-26T10:04:37.550Z,4.13
2023-01-26T10:06:07.204Z,4.20
2023-01-26T10:07:31.365Z,4.43
2023-01-26T10:08:56.523Z,4.20
2023-01-26T10:10:25.196Z,5.22
2023-01-26T10:11:52.467Z,4.45
2023-01-26T10:13:17.427Z,4.80
2023-01-26T10:14:44.292Z,4.03
2023-01-26T10:16:10.452Z,4.00
2023-01-26T10:17:35.904Z,4.55
2023-01-26T10:19:01.795Z,4.43
2023-01-26T10:20:30.171Z,5.70
2023-01-26T10:21:54.459Z,5.00
2023-01-26T10:23:20.904Z,5.18
2023-01-26T10:24:45.342Z,5.43
2023-01-26T10:26:14.668Z,5.47
2023-01-26T10:27:39.639Z,6.15
2023-01-26T10:29:03.466Z,5.50
2023-01-26T10:30:27.117Z,5.63
2023-01-26T10:31:50.732Z,5.70
2023-01-26T10:33:19.507Z,5.40
2023-01-26T10:34:44.385Z,5.72
2023-01-26T10:36:10.405Z,5.25
2023-01-26T10:37:35.454Z,4.97
2023-01-26T10:39:05.676Z,5.35
2023-01-26T10:40:29.271Z,5.53
2023-01-26T10:42:00.761Z,5.63
2023-01-26T10:43:26.903Z,5.25
2023-01-26T10:44:52.809Z,6.68
2023-01-26T10:46:26.324Z,5.60
2023-01-26T10:48:05.142Z,5.57
2023-01-26T10:49:28.650Z,6.90
2023-01-26T10:50:52.834Z,5.68
2023-01-26T10:52:22.156Z,4.93
2023-01-26T10:53:45.597Z,4.97
2023-01-26T10:55:14.031Z,6.05
2023-01-26T10:56:38.045Z,6.00
2023-01-26T10:58:02.293Z,6.30
2023-01-26T10:59:35.432Z,5.95
2023-01-26T11:00:58.936Z,6.88
2023-01-26T11:02:28.647Z,6.57
2023-01-26T11:04:03.066Z,6.05
2023-01-26T11:05:27.371Z,6.65
2023-01-26T11:06:50.838Z,6.07
2023-01-26T11:08:34.565Z,6.40
2023-01-26T11:09:58.095Z,7.20
2023-01-26T11:11:27.433Z,7.72
2023-01-26T11:12:50.943Z,6.68
2023-01-26T11:14:16.723Z,6.20
2023-01-26T11:15:43.127Z,5.90
2023-01-26T11:17:15.249Z,7.25
2023-01-26T11:18:44.638Z,6.03
2023-01-26T11:20:19.869Z,6.28
2023-01-26T11:21:47.797Z,6.00
2023-01-26T11:23:16.881Z,6.40
2023-01-26T11:24:43.695Z,6.60
2023-01-26T11:26:33.587Z,7.22
2023-01-26T11:28:15.103Z,6.85
2023-01-26T11:30:07.368Z,6.15
2023-01-26T11:31:43.012Z,4.70
2023-01-26T11:33:14.053Z,5.55
2023-01-26T11:34:45.740Z,5.57
2023-01-26T11:36:15.633Z,5.50
2023-01-26T11:37:45.011Z,6.80
2023-01-26T11:39:15.800Z,7.53
2023-01-26T11:40:44.768Z,7.32
2023-01-26T11:42:19.204Z,6.53
2023-01-26T11:43:55.164Z,7.68
2023-01-26T11:45:23.398Z,7.35
2023-01-26T11:47:00.060Z,7.25
2023-01-26T11:48:27.031Z,7.18
2023-01-26T11:50:04.787Z,6.68
2023-01-26T11:51:41.003Z,7.18
2023-01-26T11:53:19.342Z,6.53
2023-01-26T11:55:03.628Z,7.10
2023-01-26T11:56:37.399Z,6.45
2023-01-26T11:58:11.509Z,6.20
2023-01-26T11:59:38.000Z,7.00
2023-01-26T12:01:07.530Z,6.60
2023-01-26T12:02:34.231Z,5.88
2023-01-26T12:03:58.538Z,5.45
2023-01-26T12:05:25.041Z,5.90
2023-01-26T12:06:53.624Z,5.93
2023-01-26T12:08:23.392Z,6.10
2023-01-26T12:09:48.934Z,5.40
2023-01-26T12:11:25.857Z,5.25
2023-01-26T12:12:53.155Z,6.15
2023-01-26T12:14:22.004Z,5.43
2023-01-26T12:15:51.093Z,5.55
2023-01-26T12:17:33.301Z,5.60
2023-01-26T12:19:10.771Z,6.18
2023-01-26T12:20:40.086Z,6.03
2023-01-26T12:22:07.711Z,5.47
2023-01-26T12:23:34.704Z,5.70
2023-01-26T12:25:20.192Z,5.65
2023-01-26T12:26:46.857Z,5.75
2023-01-26T12:28:17.659Z,6.22
2023-01-26T12:29:48.826Z,7.15
2023-01-26T12:31:17.891Z,7.13
2023-01-26T12:32:42.952Z,6.10
2023-01-26T12:34:11.843Z,6.38
2023-01-26T12:35:48.881Z,7.22
2023-01-26T12:37:32.468Z,5.68
2023-01-26T12:39:10.184Z,7.47
2023-01-26T12:40:40.616Z,7.82
2023-01-26T12:42:20.744Z,7.07
2023-01-26T12:43:58.529Z,6.50
2023-01-26T12:45:24.717Z,6.55
2023-01-26T12:46:51.766Z,6.63
2023-01-26T12:48:18.850Z,6.68
2023-01-26T12:49:45.957Z,6.93
2023-01-26T12:51:11.830Z,5.70
2023-01-26T12:52:39.327Z,6.15
2023-01-26T12:54:04.381Z,6.22
2023-01-26T12:55:31.893Z,5.72
2023-01-26T12:56:58.032Z,5.60
2023-01-26T12:58:25.167Z,6.80
2023-01-26T12:59:49.254Z,5.57
2023-01-26T13:01:14.293Z,6.00
2023-01-26T13:02:39.050Z,5.65
2023-01-26T13:04:07.646Z,5.15
2023-01-26T13:05:33.620Z,6.07
2023-01-26T13:07:04.579Z,5.60
2023-01-26T13:08:53.763Z,5.47
2023-01-26T13:10:31.084Z,5.18
2023-01-26T13:11:55.459Z,4.72
2023-01-26T13:13:30.963Z,4.60
2023-01-26T13:15:01.445Z,3.95
2023-01-26T13:16:34.688Z,3.97
2023-01-26T13:18:01.469Z,3.83
2023-01-26T13:19:52.226Z,4.00
2023-01-26T13:21:28.087Z,4.00
2023-01-26T13:22:51.695Z,5.10
2023-01-26T13:24:43.097Z,5.30
2023-01-26T13:26:18.940Z,4.95
2023-01-26T13:27:46.480Z,5.20
2023-01-26T13:29:32.957Z,4.55
2023-01-26T13:31:06.843Z,4.38
2023-01-26T13:33:05.187Z,4.85
2023-01-26T13:34:31.161Z,4.88
2023-01-26T13:35:56.997Z,5.90
2023-01-26T13:37:25.316Z,3.88
2023-01-26T13:38:55.589Z,5.05
2023-01-26T13:40:22.609Z,4.90
2023-01-26T13:41:47.466Z,4.70
2023-01-26T13:43:26.281Z,5.43
2023-01-26T13:44:54.009Z,4.93
2023-01-26T13:46:22.546Z,5.10
2023-01-26T13:47:47.429Z,5.05
2023-01-26T13:49:25.848Z,5.18
2023-01-26T13:50:52.387Z,4.90
2023-01-26T13:52:19.730Z,5.57
2023-01-26T13:53:45.851Z,5.38
2023-01-26T13:55:14.994Z,6.32
2023-01-26T13:56:39.855Z,5.28
2023-01-26T13:58:12.171Z,5.25
2023-01-26T13:59:35.598Z,5.65
2023-01-26T14:01:03.554Z,4.78
2023-01-26T14:02:31.212Z,5.82
2023-01-26T14:04:05.099Z,4.95
2023-01-26T14:05:28.813Z,5.47
2023-01-26T14:06:56.381Z,4.85
2023-01-26T14:08:22.441Z,4.97
2023-01-26T14:09:49.096Z,5.32
2023-01-26T14:11:19.249Z,4.82
2023-01-26T14:12:45.080Z,4.32
2023-01-26T14:14:12.805Z,5.63
2023-01-26T14:15:36.521Z,5.35
2023-01-26T14:17:00.707Z,6.75
2023-01-26T14:18:24.194Z,5.88
2023-01-26T14:19:47.706Z,5.50
2023-01-26T14:21:20.112Z,5.40
2023-01-26T14:22:43.516Z,6.10
2023-01-26T14:24:11.183Z,5.90
2023-01-26T14:25:35.361Z,6.32
2023-01-26T14:26:59.247Z,6.20
2023-01-26T14:28:24.387Z,6.68
2023-01-26T14:29:47.829Z,5.85
2023-01-26T14:31:16.943Z,6.63
2023-01-26T14:32:41.125Z,6.47
2023-01-26T14:34:11.024Z,6.40
2023-01-26T14:35:34.608Z,7.10
2023-01-26T14:37:08.816Z,7.22
2023-01-26T14:38:43.403Z,7.00
2023-01-26T14:40:25.912Z,6.65
2023-01-26T14:41:50.644Z,6.72
2023-01-26T14:43:15.406Z,9.23
2023-01-26T14:44:38.890Z,8.32
2023-01-26T14:46:04.557Z,7.45
2023-01-26T14:47:31.128Z,7.28
2023-01-26T14:48:58.463Z,7.22
2023-01-26T14:50:27.457Z,6.55
2023-01-26T14:51:55.948Z,7.50
2023-01-26T14:53:22.569Z,7.82
2023-01-26T14:54:46.156Z,6.90
2023-01-26T14:56:19.484Z,7.95
2023-01-26T14:57:42.959Z,8.25
2023-01-26T14:59:07.422Z,10.80
2023-01-26T15:00:34.055Z,9.77
2023-01-26T15:02:13.859Z,9.75
2023-01-26T15:03:39.047Z,8.10
2023-01-26T15:05:05.433Z,8.20
2023-01-26T15:06:30.099Z,8.05
2023-01-26T15:07:57.408Z,7.45
2023-01-26T15:09:23.495Z,7.60
2023-01-26T15:11:16.160Z,7.75
2023-01-26T15:12:40.899Z,7.15
2023-01-26T15:14:04.371Z,8.77
2023-01-26T15:15:30.246Z,7.97
2023-01-26T15:16:53.296Z,7.32
2023-01-26T15:18:21.583Z,7.68
2023-01-26T15:19:45.023Z,7.88
2023-01-26T15:21:15.090Z,8.23
2023-01-26T15:22:38.603Z,8.45
2023-01-26T15:24:02.294Z,8.50
2023-01-26T15:25:27.504Z,8.00
2023-01-26T15:26:51.520Z,7.75
2023-01-26T15:28:19.336Z,7.85
2023-01-26T15:29:42.748Z,7.82
2023-01-26T15:31:07.023Z,8.15
2023-01-26T15:32:32.328Z,7.88
2023-01-26T15:33:56.633Z,9.32
2023-01-26T15:35:23.191Z,8.23
2023-01-26T15:36:51.152Z,8.10
2023-01-26T15:38:15.002Z,7.78
2023-01-26T15:39:38.636Z,8.10
2023-01-26T15:41:02.072Z,8.23
2023-01-26T15:42:28.788Z,7.20
2023-01-26T15:43:53.757Z,8.63
2023-01-26T15:45:26.532Z,7.38
2023-01-26T15:46:50.589Z,7.53
2023-01-26T15:48:14.043Z,7.80
2023-01-26T15:49:37.491Z,8.43
2023-01-26T15:51:00.914Z,9.55
2023-01-26T15:52:28.700Z,8.43
2023-01-26T15:53:52.114Z,7.80
2023-01-26T15:55:21.639Z,8.85
2023-01-26T15:56:45.253Z,8.75
2023-01-26T15:58:08.903Z,8.98
2023-01-26T15:59:33.748Z,9.82
2023-01-26T16:00:57.299Z,8.75
2023-01-26T16:02:22.198Z,8.55
2023-01-26T16:03:46.072Z,8.77
2023-01-26T16:05:14.926Z,7.72
2023-01-26T16:06:38.374Z,12.15
2023-01-26T16:08:00.877Z,11.65
2023-01-26T16:09:24.373Z,8.80
2023-01-26T16:10:48.445Z,8.32
2023-01-26T16:12:30.331Z,8.90
2023-01-26T16:14:03.240Z,9.00
2023-01-26T16:15:34.169Z,8.65
2023-01-26T16:16:57.615Z,9.90
2023-01-26T16:18:21.627Z,9.38
2023-01-26T16:19:45.712Z,9.88
2023-01-26T16:21:19.995Z,7.75
2023-01-26T16:22:43.471Z,9.48
2023-01-26T16:24:07.601Z,9.07
2023-01-26T16:25:32.092Z,8.77
2023-01-26T16:26:55.497Z,7.70
2023-01-26T16:28:19.511Z,7.63
2023-01-26T16:29:42.962Z,9.35
2023-01-26T16:31:14.291Z,10.15
2023-01-26T16:32:37.931Z,10.25
2023-01-26T16:34:02.043Z,8.77
2023-01-26T16:35:26.658Z,9.35
2023-01-26T16:36:50.240Z,7.68
2023-01-26T16:38:13.797Z,8.20
2023-01-26T16:39:37.475Z,8.25
2023-01-26T16:41:01.000Z,8.52
2023-01-26T16:42:24.539Z,8.52
2023-01-26T16:43:47.969Z,10.68
2023-01-26T16:45:17.201Z,9.02
2023-01-26T16:46:42.709Z,8.63
2023-01-26T16:48:12.243Z,8.98
2023-01-26T16:49:37.047Z,8.02
2023-01-26T16:51:00.525Z,9.35
2023-01-26T16:52:23.970Z,10.30
2023-01-26T16:53:47.573Z,9.95
2023-01-26T16:55:13.860Z,10.30
2023-01-26T16:56:37.443Z,10.07
2023-01-26T16:58:00.839Z,9.95
2023-01-26T16:59:24.280Z,9.57
2023-01-26T17:00:47.942Z,9.23
2023-01-26T17:02:21.788Z,9.55
2023-01-26T17:03:45.547Z,9.13
2023-01-26T17:05:11.228Z,9.40
2023-01-26T17:06:34.890Z,10.25
2023-01-26T17:07:58.433Z,9.07
2023-01-26T17:09:23.802Z,9.55
2023-01-26T17:11:01.101Z,9.60
2023-01-26T17:12:25.304Z,9.35
2023-01-26T17:13:51.725Z,9.55
2023-01-26T17:15:15.320Z,9.13
2023-01-26T17:16:38.844Z,9.00
2023-01-26T17:18:03.677Z,11.13
2023-01-26T17:19:27.152Z,9.95
2023-01-26T17:20:50.877Z,9.43
2023-01-26T17:22:15.278Z,9.95
2023-01-26T17:23:41.568Z,9.00
2023-01-26T17:25:05.669Z,9.27
2023-01-26T17:26:29.173Z,8.52
2023-01-26T17:27:52.653Z,8.93
2023-01-26T17:29:16.086Z,8.38
2023-01-26T17:30:39.563Z,8.85
2023-01-26T17:32:03.119Z,9.65
2023-01-26T17:33:26.984Z,10.75
2023-01-26T17:34:50.570Z,8.27
2023-01-26T17:36:14.549Z,9.05
2023-01-26T17:37:39.374Z,9.65
2023-01-26T17:39:02.823Z,9.73
2023-01-26T17:40:26.246Z,9.60
2023-01-26T17:41:49.893Z,9.07
2023-01-26T17:43:13.268Z,10.07
2023-01-26T17:44:36.743Z,9.82
2023-01-26T17:46:07.626Z,9.85
2023-01-26T17:47:34.015Z,10.25
2023-01-26T17:48:58.914Z,10.15
2023-01-26T17:50:21.433Z,10.57
2023-01-26T17:51:46.986Z,10.30
2023-01-26T17:53:10.410Z,9.10
2023-01-26T17:54:33.835Z,9.32
2023-01-26T17:55:57.248Z,11.27
2023-01-26T17:57:20.820Z,9.80
2023-01-26T17:58:44.384Z,11.52
2023-01-26T18:00:09.233Z,10.30
2023-01-26T18:01:32.656Z,9.15
2023-01-26T18:02:56.662Z,9.07
2023-01-26T18:04:21.497Z,9.40
2023-01-26T18:05:52.631Z,9.05
2023-01-26T18:07:16.052Z,10.07
2023-01-26T18:08:39.914Z,9.27
2023-01-26T18:10:03.338Z,8.80
2023-01-26T18:11:27.468Z,9.00
2023-01-26T18:12:50.955Z,9.02
2023-01-26T18:14:14.371Z,8.65
2023-01-26T18:15:38.085Z,9.68
2023-01-26T18:17:01.520Z,8.80
2023-01-26T18:18:25.588Z,7.97
2023-01-26T18:19:51.075Z,8.10
2023-01-26T18:21:16.876Z,9.05
2023-01-26T18:22:40.368Z,9.10
2023-01-26T18:24:06.085Z,7.68
2023-01-26T18:25:29.642Z,9.10
2023-01-26T18:26:53.097Z,9.18
2023-01-26T18:28:16.433Z,9.23
2023-01-26T18:29:39.948Z,9.18
2023-01-26T18:31:12.693Z,9.00
2023-01-26T18:32:36.967Z,9.50
2023-01-26T18:34:01.325Z,10.40
2023-01-26T18:35:26.442Z,9.55
2023-01-26T18:36:50.041Z,9.80
2023-01-26T18:38:12.565Z,10.63
2023-01-26T18:39:36.090Z,10.82
2023-01-26T18:40:59.527Z,10.55
2023-01-26T18:42:23.039Z,9.43
2023-01-26T18:43:48.341Z,10.90
2023-01-26T18:45:12.861Z,8.80
2023-01-26T18:46:36.538Z,9.77
2023-01-26T18:47:59.996Z,9.05
2023-01-26T18:49:23.476Z,8.95
2023-01-26T18:50:51.197Z,8.60
2023-01-26T18:52:14.681Z,10.35
2023-01-26T18:53:41.000Z,9.18
2023-01-26T18:55:04.550Z,10.15
2023-01-26T18:56:28.235Z,8.80
2023-01-26T18:57:54.266Z,10.52
2023-01-26T18:59:18.485Z,9.85
2023-01-26T19:00:42.034Z,9.48
2023-01-26T19:02:05.770Z,10.00
2023-01-26T19:03:29.741Z,9.15
2023-01-26T19:04:55.014Z,8.65
2023-01-26T19:06:20.093Z,7.90
2023-01-26T19:07:44.020Z,8.45
2023-01-26T19:09:09.145Z,8.27
2023-01-26T19:10:34.691Z,7.68